• Join FlightAware (Why Join?)
  • Login
  • US Flag 
02:16PM EDT


 

Airport Tracker/Info


-or-


 

Live Flight TrackerFlight Track Log ✈ KAL61 ✈ 01-May-2013 ✈ KLAX - SBGR / GRU

Flight Track Log - Related Links

Times and Time Zones

All times are in EDT time to prevent confusion due to time zone crossing. See the KAL61 flight status page for this flight to view local times or setup timezone preferences in your user account.

Time Position Orientation Groundspeed Altitude Reporting Facility
EDT Latitude Longitude Course Direction KTS MPH feet Rate Location/Type
10:09PM 33.9333 -118.4517 239° Southwest 193 222 1,700  Level Los Angeles Center
10:10PM 33.8994 -118.5200 239° Southwest 244 281 2,500 1,320 Climbing Los Angeles Center
10:11PM 33.8344 -118.5792 217° Southwest 307 353 4,500 2,340 Climbing Los Angeles Center
10:12PM 33.7419 -118.5706 176° South 310 357 7,400 2,580 Climbing Los Angeles Center
10:13PM 33.6822 -118.5019 136° Southeast 306 352 9,900 2,340 Climbing Los Angeles Center
10:14PM 33.6558 -118.3919 106° East 319 367 12,200 2,040 Climbing Los Angeles Center
10:15PM 33.6344 -118.2889 104° East 332 382 14,200 1,680 Climbing Los Angeles Center
10:16PM 33.6072 -118.1728 106° East 357 411 15,700 1,560 Climbing Los Angeles Center
10:17PM 33.5703 -118.0450 109° East 406 467 17,500 1,740 Climbing Los Angeles Center
10:18PM 33.5317 -117.9125 109° East 421 484 19,400 1,800 Climbing Los Angeles Center
10:19PM 33.4917 -117.7756 109° East 434 499 21,300 1,800 Climbing Los Angeles Center
10:20PM 33.4494 -117.6356 110° East 446 513 23,100 1,860 Climbing Los Angeles Center
10:21PM 33.3997 -117.4619 109° East 457 526 25,200 1,800 Climbing Los Angeles Center
10:22PM 33.3556 -117.3144 110° East 467 537 26,900 1,560 Climbing Los Angeles Center
10:23PM 33.3106 -117.1625 109° East 480 552 28,400 1,380 Climbing Los Angeles Center
10:24PM 33.2647 -117.0078 109° East 488 562 29,800 1,200 Climbing Los Angeles Center
10:25PM 33.2194 -116.8500 109° East 496 571 30,900 1,260 Climbing Los Angeles Center
10:26PM 33.1731 -116.6900 109° East 504 580 32,500 1,020 Climbing Los Angeles Center
10:27PM 33.1161 -116.5361 114° Southeast 504 580 33,000 240 Climbing Los Angeles Center
10:28PM 33.0428 -116.3919 121° Southeast 502 578 33,000  Level Los Angeles Center
10:29PM 32.9664 -116.2433 121° Southeast 511 588 33,000 -60 Level Los Angeles Center
10:30PM 32.8728 -116.0711 123° Southeast 510 587 32,900  Descending Los Angeles Center
10:31PM 32.7972 -115.9289 122° Southeast 508 585 33,000  Climbing Los Angeles Center
10:32PM 32.7242 -115.7869 121° Southeast 503 579 32,900  Descending Los Angeles Center
10:33PM 32.6489 -115.6461 122° Southeast 506 582 33,000  Climbing Los Angeles Center
10:35PM 32.5756 -115.5047 122° Southeast 504 580 33,000  Level Los Angeles Center
10:37PM 32.4214 -115.2432 125° Southeast  Level FlightAware Approximate
10:44PM 31.8685 -114.3196 125° Southeast  Level FlightAware Approximate
10:45PM 31.7890 -114.1885 126° Southeast  Level FlightAware Approximate
10:46PM 31.7094 -114.0577 126° Southeast  Level FlightAware Approximate
10:47PM 31.6296 -113.9271 126° Southeast  Level FlightAware Approximate
10:48PM 31.5496 -113.7968 126° Southeast  Level FlightAware Approximate
10:49PM 31.4696 -113.6666 126° Southeast  Level FlightAware Approximate
10:50PM 31.3894 -113.5367 126° Southeast  Level FlightAware Approximate
10:51PM 31.3168 -113.4008 120° Southeast  Level FlightAware Approximate
10:52PM 31.2474 -113.2629 120° Southeast  Level FlightAware Approximate
10:53PM 31.1777 -113.1251 121° Southeast  Level FlightAware Approximate
10:54PM 31.1080 -112.9876 121° Southeast  Level FlightAware Approximate
10:55PM 31.0381 -112.8503 121° Southeast  Level FlightAware Approximate
10:56PM 30.9680 -112.7132 121° Southeast  Level FlightAware Approximate
10:57PM 30.8978 -112.5763 121° Southeast  Level FlightAware Approximate
10:58PM 30.8265 -112.4403 122° Southeast  Level FlightAware Approximate
10:59PM 30.7529 -112.3060 122° Southeast  Level FlightAware Approximate
11:00PM 30.6792 -112.1719 123° Southeast  Level FlightAware Approximate
11:01PM 30.6054 -112.0380 123° Southeast  Level FlightAware Approximate
11:02PM 30.5315 -111.9043 123° Southeast  Level FlightAware Approximate
11:03PM 30.4573 -111.7709 123° Southeast  Level FlightAware Approximate
11:04PM 30.3831 -111.6376 123° Southeast  Level FlightAware Approximate
11:05PM 30.3088 -111.5045 123° Southeast  Level FlightAware Approximate
11:06PM 30.2342 -111.3716 123° Southeast  Level FlightAware Approximate
11:07PM 30.1596 -111.2390 123° Southeast  Level FlightAware Approximate
11:08PM 30.0850 -111.1064 123° Southeast  Level FlightAware Approximate
11:09PM 30.0108 -110.9736 123° Southeast  Level FlightAware Approximate
11:10PM 29.9364 -110.8410 123° Southeast  Level FlightAware Approximate
11:11PM 29.8619 -110.7086 123° Southeast  Level FlightAware Approximate
11:12PM 29.7873 -110.5764 123° Southeast  Level FlightAware Approximate
11:13PM 29.7126 -110.4444 123° Southeast  Level FlightAware Approximate
11:14PM 29.6377 -110.3126 123° Southeast  Level FlightAware Approximate
11:15PM 29.5627 -110.1810 123° Southeast  Level FlightAware Approximate
11:16PM 29.4876 -110.0496 123° Southeast  Level FlightAware Approximate
11:17PM 29.4123 -109.9184 123° Southeast  Level FlightAware Approximate
11:18PM 29.3369 -109.7874 123° Southeast  Level FlightAware Approximate
11:19PM 29.2614 -109.6566 123° Southeast  Level FlightAware Approximate
11:20PM 29.1857 -109.5259 124° Southeast  Level FlightAware Approximate
11:21PM 29.1100 -109.3955 124° Southeast  Level FlightAware Approximate
11:22PM 29.0341 -109.2653 124° Southeast  Level FlightAware Approximate
11:23PM 28.9580 -109.1352 124° Southeast  Level FlightAware Approximate
11:24PM 28.8819 -109.0053 124° Southeast  Level FlightAware Approximate
11:25PM 28.8056 -108.8757 124° Southeast  Level FlightAware Approximate
11:26PM 28.7292 -108.7462 124° Southeast  Level FlightAware Approximate
11:27PM 28.6527 -108.6169 124° Southeast  Level FlightAware Approximate
11:28PM 28.5762 -108.4877 124° Southeast  Level FlightAware Approximate
11:29PM 28.5005 -108.3579 124° Southeast  Level FlightAware Approximate
11:30PM 28.4247 -108.2284 124° Southeast  Level FlightAware Approximate
11:31PM 28.3488 -108.0990 124° Southeast  Level FlightAware Approximate
11:32PM 28.2728 -107.9698 124° Southeast  Level FlightAware Approximate
11:33PM 28.1966 -107.8408 124° Southeast  Level FlightAware Approximate
11:34PM 28.1203 -107.7119 124° Southeast  Level FlightAware Approximate
11:35PM 28.0440 -107.5833 124° Southeast  Level FlightAware Approximate
11:36PM 27.9674 -107.4548 124° Southeast  Level FlightAware Approximate
11:37PM 27.8908 -107.3265 124° Southeast  Level FlightAware Approximate
11:38PM 27.8141 -107.1984 124° Southeast  Level FlightAware Approximate
11:39PM 27.7372 -107.0705 124° Southeast  Level FlightAware Approximate
11:40PM 27.6602 -106.9427 124° Southeast  Level FlightAware Approximate
11:41PM 27.5831 -106.8152 124° Southeast  Level FlightAware Approximate
11:42PM 27.5059 -106.6878 124° Southeast  Level FlightAware Approximate
11:43PM 27.4286 -106.5606 124° Southeast  Level FlightAware Approximate
11:44PM 27.3511 -106.4336 124° Southeast  Level FlightAware Approximate
11:45PM 27.2735 -106.3067 125° Southeast  Level FlightAware Approximate
11:46PM 27.1959 -106.1801 125° Southeast  Level FlightAware Approximate
11:47PM 27.1181 -106.0536 125° Southeast  Level FlightAware Approximate
11:48PM 27.0401 -105.9272 125° Southeast  Level FlightAware Approximate
11:49PM 26.9621 -105.8011 125° Southeast  Level FlightAware Approximate
11:50PM 26.8840 -105.6751 125° Southeast  Level FlightAware Approximate
11:51PM 26.8058 -105.5493 125° Southeast  Level FlightAware Approximate
11:52PM 26.7274 -105.4237 125° Southeast  Level FlightAware Approximate
11:53PM 26.6489 -105.2983 125° Southeast  Level FlightAware Approximate
11:54PM 26.5704 -105.1730 125° Southeast  Level FlightAware Approximate
11:55PM 26.4917 -105.0479 125° Southeast  Level FlightAware Approximate
11:56PM 26.4129 -104.9230 125° Southeast  Level FlightAware Approximate
11:57PM 26.3340 -104.7982 125° Southeast  Level FlightAware Approximate
11:58PM 26.2550 -104.6736 125° Southeast  Level FlightAware Approximate
11:59PM 26.1759 -104.5492 125° Southeast  Level FlightAware Approximate
12:00AM 26.0966 -104.4249 125° Southeast  Level FlightAware Approximate
12:01AM 26.0173 -104.3008 125° Southeast  Level FlightAware Approximate
12:02AM 25.9379 -104.1769 125° Southeast  Level FlightAware Approximate
12:03AM 25.8583 -104.0532 126° Southeast  Level FlightAware Approximate
12:04AM 25.7787 -103.9296 126° Southeast  Level FlightAware Approximate
12:05AM 25.6989 -103.8062 126° Southeast  Level FlightAware Approximate
12:06AM 25.6191 -103.6829 126° Southeast  Level FlightAware Approximate
12:07AM 25.5391 -103.5598 126° Southeast  Level FlightAware Approximate
12:08AM 25.4591 -103.4369 126° Southeast  Level FlightAware Approximate
12:09AM 25.3789 -103.3141 126° Southeast  Level FlightAware Approximate
12:10AM 25.2986 -103.1916 126° Southeast  Level FlightAware Approximate
12:11AM 25.2183 -103.0691 126° Southeast  Level FlightAware Approximate
12:12AM 25.1374 -102.9471 126° Southeast  Level FlightAware Approximate
12:13AM 25.0564 -102.8253 126° Southeast  Level FlightAware Approximate
12:14AM 24.9753 -102.7037 126° Southeast  Level FlightAware Approximate
12:15AM 24.8941 -102.5823 126° Southeast  Level FlightAware Approximate
12:16AM 24.8129 -102.4610 126° Southeast  Level FlightAware Approximate
12:17AM 24.7319 -102.3395 126° Southeast  Level FlightAware Approximate
12:18AM 24.6518 -102.2175 125° Southeast  Level FlightAware Approximate
12:19AM 24.5729 -102.0945 125° Southeast  Level FlightAware Approximate
12:20AM 24.4939 -101.9717 125° Southeast  Level FlightAware Approximate
12:21AM 24.4147 -101.8491 125° Southeast  Level FlightAware Approximate
12:22AM 24.3355 -101.7266 125° Southeast  Level FlightAware Approximate
12:23AM 24.2562 -101.6043 125° Southeast  Level FlightAware Approximate
12:24AM 24.1768 -101.4822 125° Southeast  Level FlightAware Approximate
12:25AM 24.0863 -101.3699 132° Southeast  Level FlightAware Approximate
12:26AM 23.9941 -101.2591 132° Southeast  Level FlightAware Approximate
12:27AM 23.9019 -101.1486 132° Southeast  Level FlightAware Approximate
12:28AM 23.8096 -101.0382 132° Southeast  Level FlightAware Approximate
12:29AM 23.7172 -100.9279 132° Southeast  Level FlightAware Approximate
12:30AM 23.6247 -100.8178 133° Southeast  Level FlightAware Approximate
12:31AM 23.5321 -100.7079 133° Southeast  Level FlightAware Approximate
12:32AM 23.4393 -100.5985 131° Southeast  Level FlightAware Approximate
12:33AM 23.3501 -100.4854 131° Southeast  Level FlightAware Approximate
12:34AM 23.2609 -100.3725 131° Southeast  Level FlightAware Approximate
12:35AM 23.1705 -100.2607 132° Southeast  Level FlightAware Approximate
12:36AM 23.0791 -100.1501 132° Southeast  Level FlightAware Approximate
12:37AM 22.9875 -100.0396 132° Southeast  Level FlightAware Approximate
12:38AM 22.8959 -99.9292 132° Southeast  Level FlightAware Approximate
12:39AM 22.8042 -99.8190 132° Southeast  Level FlightAware Approximate
12:40AM 22.7125 -99.7089 132° Southeast  Level FlightAware Approximate
12:41AM 22.6206 -99.5990 132° Southeast  Level FlightAware Approximate
12:42AM 22.5287 -99.4893 132° Southeast  Level FlightAware Approximate
12:43AM 22.4368 -99.3796 132° Southeast  Level FlightAware Approximate
12:44AM 22.3447 -99.2702 132° Southeast  Level FlightAware Approximate
12:45AM 22.2526 -99.1608 132° Southeast  Level FlightAware Approximate
12:46AM 22.1604 -99.0517 132° Southeast  Level FlightAware Approximate
12:47AM 22.0679 -98.9428 133° Southeast  Level FlightAware Approximate
12:48AM 21.9753 -98.8342 133° Southeast  Level FlightAware Approximate
12:49AM 21.8825 -98.7257 133° Southeast  Level FlightAware Approximate
12:50AM 21.7897 -98.6174 133° Southeast  Level FlightAware Approximate
12:51AM 21.6969 -98.5093 133° Southeast  Level FlightAware Approximate
12:52AM 21.6039 -98.4012 133° Southeast  Level FlightAware Approximate
12:53AM 21.5110 -98.2932 132° Southeast  Level FlightAware Approximate
12:54AM 21.4198 -98.1837 132° Southeast  Level FlightAware Approximate
12:55AM 21.3285 -98.0742 132° Southeast  Level FlightAware Approximate
12:56AM 21.2371 -97.9650 132° Southeast  Level FlightAware Approximate
12:57AM 21.1457 -97.8558 132° Southeast  Level FlightAware Approximate
12:58AM 21.0542 -97.7468 132° Southeast  Level FlightAware Approximate
12:59AM 20.9626 -97.6379 132° Southeast  Level FlightAware Approximate
01:00AM 20.8700 -97.5301 133° Southeast  Level FlightAware Approximate
01:01AM 20.7764 -97.4233 133° Southeast  Level FlightAware Approximate
01:02AM 20.6827 -97.3167 133° Southeast  Level FlightAware Approximate
01:03AM 20.5889 -97.2102 133° Southeast  Level FlightAware Approximate
01:04AM 20.4951 -97.1039 133° Southeast  Level FlightAware Approximate
01:05AM 20.4013 -96.9977 133° Southeast  Level FlightAware Approximate
01:06AM 20.3073 -96.8916 133° Southeast  Level FlightAware Approximate
01:07AM 20.2149 -96.7840 132° Southeast  Level FlightAware Approximate
01:08AM 20.1292 -96.6704 128° Southeast  Level FlightAware Approximate
01:09AM 20.0448 -96.5558 128° Southeast  Level FlightAware Approximate
01:10AM 19.9603 -96.4413 128° Southeast  Level FlightAware Approximate
01:11AM 19.8757 -96.3269 128° Southeast  Level FlightAware Approximate
01:12AM 19.7910 -96.2127 128° Southeast  Level FlightAware Approximate
01:13AM 19.7063 -96.0985 128° Southeast  Level FlightAware Approximate
01:14AM 19.6215 -95.9845 128° Southeast  Level FlightAware Approximate
01:15AM 19.5366 -95.8706 128° Southeast  Level FlightAware Approximate
01:16AM 19.4517 -95.7568 128° Southeast  Level FlightAware Approximate
01:17AM 19.3666 -95.6432 128° Southeast  Level FlightAware Approximate
01:18AM 19.2816 -95.5296 128° Southeast  Level FlightAware Approximate
01:19AM 19.1964 -95.4162 128° Southeast  Level FlightAware Approximate
01:20AM 19.1112 -95.3029 129° Southeast  Level FlightAware Approximate
01:21AM 19.0259 -95.1897 129° Southeast  Level FlightAware Approximate
01:22AM 18.9406 -95.0766 128° Southeast  Level FlightAware Approximate
01:23AM 18.8554 -94.9634 129° Southeast  Level FlightAware Approximate
01:24AM 18.7701 -94.8504 129° Southeast  Level FlightAware Approximate
01:25AM 18.6847 -94.7375 129° Southeast  Level FlightAware Approximate
01:26AM 18.5993 -94.6248 129° Southeast  Level FlightAware Approximate
01:27AM 18.5138 -94.5121 129° Southeast  Level FlightAware Approximate
01:28AM 18.4282 -94.3995 129° Southeast  Level FlightAware Approximate
01:29AM 18.3426 -94.2871 129° Southeast  Level FlightAware Approximate
01:30AM 18.2568 -94.1748 129° Southeast  Level FlightAware Approximate
01:31AM 18.1711 -94.0626 129° Southeast  Level FlightAware Approximate
01:32AM 18.0853 -93.9504 129° Southeast  Level FlightAware Approximate
01:33AM 17.9993 -93.8384 129° Southeast  Level FlightAware Approximate
01:34AM 17.9134 -93.7265 129° Southeast  Level FlightAware Approximate
01:35AM 17.8274 -93.6148 129° Southeast  Level FlightAware Approximate
01:36AM 17.7413 -93.5031 129° Southeast  Level FlightAware Approximate
01:37AM 17.6551 -93.3915 129° Southeast  Level FlightAware Approximate
01:38AM 17.5689 -93.2801 129° Southeast  Level FlightAware Approximate
01:39AM 17.4826 -93.1687 129° Southeast  Level FlightAware Approximate
01:40AM 17.3963 -93.0575 129° Southeast  Level FlightAware Approximate
01:41AM 17.3099 -92.9463 129° Southeast  Level FlightAware Approximate
01:42AM 17.2234 -92.8353 129° Southeast  Level FlightAware Approximate
01:43AM 17.1369 -92.7243 129° Southeast  Level FlightAware Approximate
01:44AM 17.0503 -92.6135 129° Southeast  Level FlightAware Approximate
01:45AM 16.9637 -92.5028 129° Southeast  Level FlightAware Approximate
01:46AM 16.8770 -92.3922 129° Southeast  Level FlightAware Approximate
01:47AM 16.7902 -92.2816 129° Southeast  Level FlightAware Approximate
01:48AM 16.7034 -92.1712 129° Southeast  Level FlightAware Approximate
01:49AM 16.6165 -92.0609 129° Southeast  Level FlightAware Approximate
01:50AM 16.5296 -91.9507 129° Southeast  Level FlightAware Approximate
01:51AM 16.4426 -91.8405 129° Southeast  Level FlightAware Approximate
01:52AM 16.3555 -91.7305 129° Southeast  Level FlightAware Approximate
01:53AM 16.2684 -91.6206 130° Southeast  Level FlightAware Approximate
01:54AM 16.1812 -91.5107 130° Southeast  Level FlightAware Approximate
01:55AM 16.0940 -91.4010 130° Southeast  Level FlightAware Approximate
01:56AM 16.0065 -91.2915 130° Southeast  Level FlightAware Approximate
01:57AM 15.9189 -91.1822 130° Southeast  Level FlightAware Approximate
01:58AM 15.8312 -91.0730 130° Southeast  Level FlightAware Approximate
01:59AM 15.7435 -90.9639 130° Southeast  Level FlightAware Approximate
02:00AM 15.6557 -90.8549 130° Southeast  Level FlightAware Approximate
02:01AM 15.5678 -90.7460 130° Southeast  Level FlightAware Approximate
02:02AM 15.4799 -90.6372 130° Southeast  Level FlightAware Approximate
02:03AM 15.3920 -90.5285 130° Southeast  Level FlightAware Approximate
02:04AM 15.3040 -90.4198 130° Southeast  Level FlightAware Approximate
02:05AM 15.2159 -90.3113 130° Southeast  Level FlightAware Approximate
02:06AM 15.1278 -90.2028 130° Southeast  Level FlightAware Approximate
02:07AM 15.0396 -90.0945 130° Southeast  Level FlightAware Approximate
02:08AM 14.9514 -89.9862 130° Southeast  Level FlightAware Approximate
02:09AM 14.8632 -89.8780 130° Southeast  Level FlightAware Approximate
02:10AM 14.7749 -89.7699 130° Southeast  Level FlightAware Approximate
02:11AM 14.6865 -89.6619 130° Southeast  Level FlightAware Approximate
02:12AM 14.5981 -89.5540 130° Southeast  Level FlightAware Approximate
02:13AM 14.5096 -89.4461 130° Southeast  Level FlightAware Approximate
02:14AM 14.4211 -89.3384 130° Southeast  Level FlightAware Approximate
02:15AM 14.3326 -89.2307 130° Southeast  Level FlightAware Approximate
02:16AM 14.2440 -89.1232 130° Southeast  Level FlightAware Approximate
02:17AM 14.1553 -89.0157 130° Southeast  Level FlightAware Approximate
02:18AM 14.0666 -88.9082 130° Southeast  Level FlightAware Approximate
02:19AM 13.9778 -88.8009 130° Southeast  Level FlightAware Approximate
02:20AM 13.8890 -88.6937 130° Southeast  Level FlightAware Approximate
02:21AM 13.8002 -88.5865 131° Southeast  Level FlightAware Approximate
02:22AM 13.7112 -88.4795 131° Southeast  Level FlightAware Approximate
02:23AM 13.6223 -88.3725 131° Southeast  Level FlightAware Approximate
02:24AM 13.5332 -88.2657 131° Southeast  Level FlightAware Approximate
02:25AM 13.4442 -88.1589 131° Southeast  Level FlightAware Approximate
02:26AM 13.3550 -88.0521 131° Southeast  Level FlightAware Approximate
02:27AM 13.2659 -87.9455 131° Southeast  Level FlightAware Approximate
02:28AM 13.1767 -87.8389 131° Southeast  Level FlightAware Approximate
02:29AM 13.0874 -87.7325 131° Southeast  Level FlightAware Approximate
02:30AM 12.9981 -87.6260 131° Southeast  Level FlightAware Approximate
02:31AM 12.9088 -87.5197 131° Southeast  Level FlightAware Approximate
02:32AM 12.8194 -87.4135 131° Southeast  Level FlightAware Approximate
02:33AM 12.7300 -87.3073 131° Southeast  Level FlightAware Approximate
02:34AM 12.6405 -87.2012 131° Southeast  Level FlightAware Approximate
02:35AM 12.5510 -87.0951 131° Southeast  Level FlightAware Approximate
02:36AM 12.4615 -86.9892 131° Southeast  Level FlightAware Approximate
02:37AM 12.3719 -86.8833 131° Southeast  Level FlightAware Approximate
02:38AM 12.2823 -86.7775 131° Southeast  Level FlightAware Approximate
02:39AM 12.1926 -86.6717 131° Southeast  Level FlightAware Approximate
02:40AM 12.1029 -86.5661 131° Southeast  Level FlightAware Approximate
02:41AM 12.0131 -86.4605 131° Southeast  Level FlightAware Approximate
02:42AM 11.9233 -86.3549 131° Southeast  Level FlightAware Approximate
02:43AM 11.8333 -86.2496 131° Southeast  Level FlightAware Approximate
02:44AM 11.7433 -86.1444 131° Southeast  Level FlightAware Approximate
02:45AM 11.6532 -86.0392 131° Southeast  Level FlightAware Approximate
02:46AM 11.5631 -85.9341 131° Southeast  Level FlightAware Approximate
02:47AM 11.4730 -85.8290 131° Southeast  Level FlightAware Approximate
02:48AM 11.3828 -85.7241 131° Southeast  Level FlightAware Approximate
02:49AM 11.2926 -85.6191 131° Southeast  Level FlightAware Approximate
02:50AM 11.2023 -85.5143 131° Southeast  Level FlightAware Approximate
02:51AM 11.1121 -85.4095 131° Southeast  Level FlightAware Approximate
02:52AM 11.0217 -85.3048 131° Southeast  Level FlightAware Approximate
02:53AM 10.9314 -85.2002 131° Southeast  Level FlightAware Approximate
02:54AM 10.8410 -85.0956 131° Southeast  Level FlightAware Approximate
02:55AM 10.7505 -84.9911 131° Southeast  Level FlightAware Approximate
02:56AM 10.6601 -84.8866 131° Southeast  Level FlightAware Approximate
02:57AM 10.5696 -84.7822 131° Southeast  Level FlightAware Approximate
02:58AM 10.4790 -84.6779 131° Southeast  Level FlightAware Approximate
02:59AM 10.3884 -84.5736 131° Southeast  Level FlightAware Approximate
03:00AM 10.2978 -84.4694 131° Southeast  Level FlightAware Approximate
03:01AM 10.2072 -84.3652 131° Southeast  Level FlightAware Approximate
03:02AM 10.1165 -84.2611 131° Southeast  Level FlightAware Approximate
03:03AM 10.0258 -84.1571 132° Southeast  Level FlightAware Approximate
03:04AM 9.9351 -84.0531 132° Southeast  Level FlightAware Approximate
03:05AM 9.8443 -83.9492 132° Southeast  Level FlightAware Approximate
03:06AM 9.7535 -83.8453 132° Southeast  Level FlightAware Approximate
03:07AM 9.6627 -83.7415 132° Southeast  Level FlightAware Approximate
03:08AM 9.5718 -83.6378 132° Southeast  Level FlightAware Approximate
03:09AM 9.4810 -83.5341 132° Southeast  Level FlightAware Approximate
03:10AM 9.3900 -83.4304 132° Southeast  Level FlightAware Approximate
03:11AM 9.2991 -83.3268 132° Southeast  Level FlightAware Approximate
03:12AM 9.2081 -83.2233 132° Southeast  Level FlightAware Approximate
03:13AM 9.1171 -83.1198 132° Southeast  Level FlightAware Approximate
03:14AM 9.0260 -83.0164 132° Southeast  Level FlightAware Approximate
03:15AM 8.9350 -82.9130 132° Southeast  Level FlightAware Approximate
03:16AM 8.8440 -82.8096 131° Southeast  Level FlightAware Approximate
03:17AM 8.7547 -82.7048 131° Southeast  Level FlightAware Approximate
03:18AM 8.6653 -82.5999 131° Southeast  Level FlightAware Approximate
03:19AM 8.5759 -82.4952 131° Southeast  Level FlightAware Approximate
03:20AM 8.4865 -82.3904 131° Southeast  Level FlightAware Approximate
03:21AM 8.3971 -82.2858 131° Southeast  Level FlightAware Approximate
03:22AM 8.3076 -82.1812 131° Southeast  Level FlightAware Approximate
03:23AM 8.2168 -82.0778 132° Southeast  Level FlightAware Approximate
03:24AM 8.1248 -81.9754 132° Southeast  Level FlightAware Approximate
03:25AM 8.0328 -81.8731 132° Southeast  Level FlightAware Approximate
03:26AM 7.9408 -81.7709 132° Southeast  Level FlightAware Approximate
03:27AM 7.8488 -81.6687 132° Southeast  Level FlightAware Approximate
03:28AM 7.7567 -81.5665 132° Southeast  Level FlightAware Approximate
03:29AM 7.6646 -81.4644 132° Southeast  Level FlightAware Approximate
03:30AM 7.5735 -81.3614 132° Southeast  Level FlightAware Approximate
03:31AM 7.4823 -81.2585 132° Southeast  Level FlightAware Approximate
03:32AM 7.3911 -81.1557 132° Southeast  Level FlightAware Approximate
03:33AM 7.2999 -81.0529 132° Southeast  Level FlightAware Approximate
03:34AM 7.2087 -80.9501 132° Southeast  Level FlightAware Approximate
03:35AM 7.1174 -80.8473 132° Southeast  Level FlightAware Approximate
03:36AM 7.0261 -80.7447 132° Southeast  Level FlightAware Approximate
03:37AM 6.9348 -80.6420 132° Southeast  Level FlightAware Approximate
03:38AM 6.8435 -80.5394 132° Southeast  Level FlightAware Approximate
03:39AM 6.7521 -80.4368 132° Southeast  Level FlightAware Approximate
03:40AM 6.6608 -80.3343 132° Southeast  Level FlightAware Approximate
03:41AM 6.5694 -80.2318 132° Southeast  Level FlightAware Approximate
03:42AM 6.4780 -80.1293 132° Southeast  Level FlightAware Approximate
03:43AM 6.3864 -80.0270 132° Southeast  Level FlightAware Approximate
03:44AM 6.2947 -79.9248 132° Southeast  Level FlightAware Approximate
03:45AM 6.2031 -79.8226 132° Southeast  Level FlightAware Approximate
03:46AM 6.1114 -79.7205 132° Southeast  Level FlightAware Approximate
03:47AM 6.0197 -79.6184 132° Southeast  Level FlightAware Approximate
03:48AM 5.9280 -79.5163 132° Southeast  Level FlightAware Approximate
03:49AM 5.8362 -79.4142 132° Southeast  Level FlightAware Approximate
03:50AM 5.7445 -79.3122 132° Southeast  Level FlightAware Approximate
03:51AM 5.6527 -79.2102 132° Southeast  Level FlightAware Approximate
03:52AM 5.5609 -79.1083 132° Southeast  Level FlightAware Approximate
03:53AM 5.4691 -79.0064 132° Southeast  Level FlightAware Approximate
03:54AM 5.3773 -78.9045 132° Southeast  Level FlightAware Approximate
03:55AM 5.2854 -78.8026 132° Southeast  Level FlightAware Approximate
03:56AM 5.1936 -78.7008 132° Southeast  Level FlightAware Approximate
03:57AM 5.1017 -78.5990 132° Southeast  Level FlightAware Approximate
03:58AM 5.0098 -78.4973 132° Southeast  Level FlightAware Approximate
03:59AM 4.9179 -78.3955 132° Southeast  Level FlightAware Approximate
04:00AM 4.8260 -78.2938 132° Southeast  Level FlightAware Approximate
04:01AM 4.7341 -78.1921 132° Southeast  Level FlightAware Approximate
04:02AM 4.6421 -78.0905 132° Southeast  Level FlightAware Approximate
04:03AM 4.5501 -77.9888 132° Southeast  Level FlightAware Approximate
04:04AM 4.4582 -77.8872 132° Southeast  Level FlightAware Approximate
04:05AM 4.3662 -77.7857 132° Southeast  Level FlightAware Approximate
04:06AM 4.2742 -77.6841 132° Southeast  Level FlightAware Approximate
04:07AM 4.1821 -77.5826 132° Southeast  Level FlightAware Approximate
04:08AM 4.0901 -77.4811 132° Southeast  Level FlightAware Approximate
04:09AM 3.9981 -77.3796 132° Southeast  Level FlightAware Approximate
04:10AM 3.9060 -77.2781 132° Southeast  Level FlightAware Approximate
04:11AM 3.8139 -77.1767 132° Southeast  Level FlightAware Approximate
04:12AM 3.7218 -77.0753 132° Southeast  Level FlightAware Approximate
04:13AM 3.6298 -76.9739 132° Southeast  Level FlightAware Approximate
04:14AM 3.5377 -76.8725 132° Southeast  Level FlightAware Approximate
04:15AM 3.4455 -76.7712 132° Southeast  Level FlightAware Approximate
04:16AM 3.3534 -76.6699 132° Southeast  Level FlightAware Approximate
04:17AM 3.2613 -76.5685 132° Southeast  Level FlightAware Approximate
04:18AM 3.1691 -76.4672 132° Southeast  Level FlightAware Approximate
04:19AM 3.0770 -76.3660 132° Southeast  Level FlightAware Approximate
04:20AM 2.9848 -76.2647 132° Southeast  Level FlightAware Approximate
04:21AM 2.8926 -76.1635 132° Southeast  Level FlightAware Approximate
04:22AM 2.8008 -76.0619 132° Southeast  Level FlightAware Approximate
04:23AM 2.7092 -75.9602 132° Southeast  Level FlightAware Approximate
04:24AM 2.6176 -75.8584 132° Southeast  Level FlightAware Approximate
04:25AM 2.5260 -75.7566 132° Southeast  Level FlightAware Approximate
04:26AM 2.4344 -75.6549 132° Southeast  Level FlightAware Approximate
04:27AM 2.3425 -75.5535 132° Southeast  Level FlightAware Approximate
04:28AM 2.2504 -75.4523 132° Southeast  Level FlightAware Approximate
04:29AM 2.1582 -75.3510 132° Southeast  Level FlightAware Approximate
04:30AM 2.0661 -75.2498 132° Southeast  Level FlightAware Approximate
04:31AM 1.9739 -75.1487 132° Southeast  Level FlightAware Approximate
04:32AM 1.8818 -75.0475 132° Southeast  Level FlightAware Approximate
04:33AM 1.7896 -74.9463 132° Southeast  Level FlightAware Approximate
04:34AM 1.6974 -74.8451 132° Southeast  Level FlightAware Approximate
04:35AM 1.6053 -74.7440 132° Southeast  Level FlightAware Approximate
04:36AM 1.5131 -74.6429 132° Southeast  Level FlightAware Approximate
04:37AM 1.4209 -74.5417 132° Southeast  Level FlightAware Approximate
04:38AM 1.3287 -74.4406 132° Southeast  Level FlightAware Approximate
04:39AM 1.2365 -74.3395 132° Southeast  Level FlightAware Approximate
04:40AM 1.1443 -74.2384 132° Southeast  Level FlightAware Approximate
04:41AM 1.0521 -74.1373 132° Southeast  Level FlightAware Approximate
04:42AM 0.9576 -74.0384 134° Southeast  Level FlightAware Approximate
04:43AM 0.8624 -73.9400 134° Southeast  Level FlightAware Approximate
04:44AM 0.7673 -73.8417 134° Southeast  Level FlightAware Approximate
04:45AM 0.6721 -73.7433 134° Southeast  Level FlightAware Approximate
04:46AM 0.5770 -73.6450 134° Southeast  Level FlightAware Approximate
04:47AM 0.4818 -73.5467 134° Southeast  Level FlightAware Approximate
04:48AM 0.3867 -73.4484 134° Southeast  Level FlightAware Approximate
04:49AM 0.2915 -73.3501 134° Southeast  Level FlightAware Approximate
04:50AM 0.1964 -73.2518 134° Southeast  Level FlightAware Approximate
04:51AM 0.1012 -73.1535 134° Southeast  Level FlightAware Approximate
04:52AM 0.0061 -73.0552 134° Southeast  Level FlightAware Approximate
04:53AM -0.0891 -72.9568 134° Southeast  Level FlightAware Approximate
04:54AM -0.1843 -72.8585 134° Southeast  Level FlightAware Approximate
04:55AM -0.2794 -72.7602 134° Southeast  Level FlightAware Approximate
04:56AM -0.3746 -72.6619 134° Southeast  Level FlightAware Approximate
04:57AM -0.4697 -72.5636 134° Southeast  Level FlightAware Approximate
04:58AM -0.5649 -72.4653 134° Southeast  Level FlightAware Approximate
04:59AM -0.6600 -72.3670 134° Southeast  Level FlightAware Approximate
05:00AM -0.7552 -72.2686 134° Southeast  Level FlightAware Approximate
05:01AM -0.8503 -72.1703 134° Southeast  Level FlightAware Approximate
05:02AM -0.9455 -72.0720 134° Southeast  Level FlightAware Approximate
05:03AM -1.0406 -71.9736 134° Southeast  Level FlightAware Approximate
05:04AM -1.1357 -71.8753 134° Southeast  Level FlightAware Approximate
05:05AM -1.2309 -71.7769 134° Southeast  Level FlightAware Approximate
05:06AM -1.3260 -71.6786 134° Southeast  Level FlightAware Approximate
05:07AM -1.4211 -71.5802 134° Southeast  Level FlightAware Approximate
05:08AM -1.5162 -71.4818 134° Southeast  Level FlightAware Approximate
05:09AM -1.6114 -71.3834 134° Southeast  Level FlightAware Approximate
05:10AM -1.7065 -71.2850 134° Southeast  Level FlightAware Approximate
05:11AM -1.8016 -71.1866 134° Southeast  Level FlightAware Approximate
05:12AM -1.8967 -71.0882 134° Southeast  Level FlightAware Approximate
05:13AM -1.9918 -70.9898 134° Southeast  Level FlightAware Approximate
05:14AM -2.0869 -70.8914 134° Southeast  Level FlightAware Approximate
05:15AM -2.1820 -70.7929 134° Southeast  Level FlightAware Approximate
05:16AM -2.2770 -70.6945 134° Southeast  Level FlightAware Approximate
05:17AM -2.3721 -70.5960 134° Southeast  Level FlightAware Approximate
05:18AM -2.4672 -70.4975 134° Southeast  Level FlightAware Approximate
05:19AM -2.5622 -70.3990 134° Southeast  Level FlightAware Approximate
05:20AM -2.6573 -70.3005 134° Southeast  Level FlightAware Approximate
05:21AM -2.7523 -70.2020 134° Southeast  Level FlightAware Approximate
05:22AM -2.8473 -70.1034 134° Southeast  Level FlightAware Approximate
05:23AM -2.9424 -70.0049 134° Southeast  Level FlightAware Approximate
05:24AM -3.0374 -69.9063 134° Southeast  Level FlightAware Approximate
05:25AM -3.1324 -69.8077 134° Southeast  Level FlightAware Approximate
05:26AM -3.2274 -69.7091 134° Southeast  Level FlightAware Approximate
05:27AM -3.3224 -69.6104 134° Southeast  Level FlightAware Approximate
05:28AM -3.4174 -69.5118 134° Southeast  Level FlightAware Approximate
05:29AM -3.5124 -69.4131 134° Southeast  Level FlightAware Approximate
05:30AM -3.6073 -69.3144 134° Southeast  Level FlightAware Approximate
05:31AM -3.7023 -69.2157 134° Southeast  Level FlightAware Approximate
05:32AM -3.7972 -69.1170 134° Southeast  Level FlightAware Approximate
05:33AM -3.8921 -69.0182 134° Southeast  Level FlightAware Approximate
05:34AM -3.9870 -68.9194 134° Southeast  Level FlightAware Approximate
05:35AM -4.0819 -68.8206 134° Southeast  Level FlightAware Approximate
05:36AM -4.1768 -68.7218 134° Southeast  Level FlightAware Approximate
05:37AM -4.2717 -68.6230 134° Southeast  Level FlightAware Approximate
05:38AM -4.3666 -68.5241 134° Southeast  Level FlightAware Approximate
05:39AM -4.4614 -68.4252 134° Southeast  Level FlightAware Approximate
05:40AM -4.5563 -68.3263 134° Southeast  Level FlightAware Approximate
05:41AM -4.6511 -68.2273 134° Southeast  Level FlightAware Approximate
05:42AM -4.7459 -68.1284 134° Southeast  Level FlightAware Approximate
05:43AM -4.8407 -68.0294 134° Southeast  Level FlightAware Approximate
05:44AM -4.9355 -67.9303 134° Southeast  Level FlightAware Approximate
05:45AM -5.0303 -67.8313 134° Southeast  Level FlightAware Approximate
05:46AM -5.1250 -67.7322 134° Southeast  Level FlightAware Approximate
05:47AM -5.2197 -67.6331 134° Southeast  Level FlightAware Approximate
05:48AM -5.3145 -67.5339 134° Southeast  Level FlightAware Approximate
05:49AM -5.4092 -67.4347 134° Southeast  Level FlightAware Approximate
05:50AM -5.5039 -67.3355 134° Southeast  Level FlightAware Approximate
05:51AM -5.5985 -67.2363 134° Southeast  Level FlightAware Approximate
05:52AM -5.6932 -67.1370 134° Southeast  Level FlightAware Approximate
05:53AM -5.7878 -67.0377 134° Southeast  Level FlightAware Approximate
05:54AM -5.8825 -66.9384 134° Southeast  Level FlightAware Approximate
05:55AM -5.9771 -66.8390 134° Southeast  Level FlightAware Approximate
05:56AM -6.0717 -66.7396 134° Southeast  Level FlightAware Approximate
05:57AM -6.1662 -66.6402 134° Southeast  Level FlightAware Approximate
05:58AM -6.2608 -66.5407 134° Southeast  Level FlightAware Approximate
05:59AM -6.3553 -66.4412 134° Southeast  Level FlightAware Approximate
06:00AM -6.4498 -66.3416 134° Southeast  Level FlightAware Approximate
06:01AM -6.5443 -66.2420 134° Southeast  Level FlightAware Approximate
06:02AM -6.6388 -66.1424 134° Southeast  Level FlightAware Approximate
06:03AM -6.7333 -66.0427 134° Southeast  Level FlightAware Approximate
06:04AM -6.8277 -65.9430 134° Southeast  Level FlightAware Approximate
06:05AM -6.9221 -65.8433 134° Southeast  Level FlightAware Approximate
06:06AM -7.0165 -65.7435 134° Southeast  Level FlightAware Approximate
06:07AM -7.1109 -65.6437 134° Southeast  Level FlightAware Approximate
06:08AM -7.2052 -65.5439 134° Southeast  Level FlightAware Approximate
06:09AM -7.2995 -65.4439 134° Southeast  Level FlightAware Approximate
06:10AM -7.3938 -65.3440 134° Southeast  Level FlightAware Approximate
06:11AM -7.4881 -65.2440 134° Southeast  Level FlightAware Approximate
06:12AM -7.5824 -65.1440 134° Southeast  Level FlightAware Approximate
06:13AM -7.6766 -65.0439 134° Southeast  Level FlightAware Approximate
06:14AM -7.7709 -64.9438 134° Southeast  Level FlightAware Approximate
06:15AM -7.8650 -64.8436 134° Southeast  Level FlightAware Approximate
06:16AM -7.9592 -64.7434 134° Southeast  Level FlightAware Approximate
06:17AM -8.0534 -64.6432 133° Southeast  Level FlightAware Approximate
06:18AM -8.1475 -64.5429 133° Southeast  Level FlightAware Approximate
06:19AM -8.2416 -64.4425 133° Southeast  Level FlightAware Approximate
06:20AM -8.3357 -64.3421 133° Southeast  Level FlightAware Approximate
06:21AM -8.4297 -64.2417 133° Southeast  Level FlightAware Approximate
06:22AM -8.5237 -64.1412 133° Southeast  Level FlightAware Approximate
06:23AM -8.6177 -64.0406 133° Southeast  Level FlightAware Approximate
06:24AM -8.7117 -63.9400 133° Southeast  Level FlightAware Approximate
06:25AM -8.8056 -63.8394 133° Southeast  Level FlightAware Approximate
06:26AM -8.8996 -63.7387 133° Southeast  Level FlightAware Approximate
06:27AM -8.9934 -63.6380 133° Southeast  Level FlightAware Approximate
06:28AM -9.0873 -63.5372 133° Southeast  Level FlightAware Approximate
06:29AM -9.1811 -63.4363 133° Southeast  Level FlightAware Approximate
06:30AM -9.2749 -63.3354 133° Southeast  Level FlightAware Approximate
06:31AM -9.3687 -63.2344 133° Southeast  Level FlightAware Approximate
06:32AM -9.4625 -63.1334 133° Southeast  Level FlightAware Approximate
06:33AM -9.5562 -63.0324 133° Southeast  Level FlightAware Approximate
06:34AM -9.6499 -62.9312 133° Southeast  Level FlightAware Approximate
06:35AM -9.7435 -62.8301 133° Southeast  Level FlightAware Approximate
06:36AM -9.8372 -62.7288 133° Southeast  Level FlightAware Approximate
06:37AM -9.9308 -62.6275 133° Southeast  Level FlightAware Approximate
06:38AM -10.0243 -62.5262 133° Southeast  Level FlightAware Approximate
06:39AM -10.1179 -62.4248 133° Southeast  Level FlightAware Approximate
06:40AM -10.2114 -62.3233 133° Southeast  Level FlightAware Approximate
06:41AM -10.3049 -62.2218 133° Southeast  Level FlightAware Approximate
06:42AM -10.3983 -62.1202 133° Southeast  Level FlightAware Approximate
06:43AM -10.4917 -62.0185 133° Southeast  Level FlightAware Approximate
06:44AM -10.5851 -61.9168 133° Southeast  Level FlightAware Approximate
06:45AM -10.6785 -61.8150 133° Southeast  Level FlightAware Approximate
06:46AM -10.7718 -61.7132 133° Southeast  Level FlightAware Approximate
06:47AM -10.8651 -61.6113 133° Southeast  Level FlightAware Approximate
06:48AM -10.9583 -61.5093 133° Southeast  Level FlightAware Approximate
06:49AM -11.0515 -61.4073 133° Southeast  Level FlightAware Approximate
06:50AM -11.1447 -61.3052 133° Southeast  Level FlightAware Approximate
06:51AM -11.2379 -61.2031 133° Southeast  Level FlightAware Approximate
06:52AM -11.3310 -61.1008 133° Southeast  Level FlightAware Approximate
06:53AM -11.4241 -60.9986 133° Southeast  Level FlightAware Approximate
06:54AM -11.5171 -60.8962 133° Southeast  Level FlightAware Approximate
06:55AM -11.6101 -60.7938 133° Southeast  Level FlightAware Approximate
06:56AM -11.7031 -60.6913 133° Southeast  Level FlightAware Approximate
06:57AM -11.7960 -60.5887 133° Southeast  Level FlightAware Approximate
06:58AM -11.8889 -60.4861 133° Southeast  Level FlightAware Approximate
06:59AM -11.9818 -60.3834 133° Southeast  Level FlightAware Approximate
07:00AM -12.0746 -60.2806 133° Southeast  Level FlightAware Approximate
07:01AM -12.1674 -60.1778 133° Southeast  Level FlightAware Approximate
07:02AM -12.2601 -60.0748 133° Southeast  Level FlightAware Approximate
07:03AM -12.3528 -59.9719 133° Southeast  Level FlightAware Approximate
07:04AM -12.4455 -59.8688 133° Southeast  Level FlightAware Approximate
07:05AM -12.5381 -59.7657 133° Southeast  Level FlightAware Approximate
07:06AM -12.6307 -59.6624 133° Southeast  Level FlightAware Approximate
07:07AM -12.7233 -59.5592 133° Southeast  Level FlightAware Approximate
07:08AM -12.8158 -59.4558 133° Southeast  Level FlightAware Approximate
07:09AM -12.9082 -59.3524 133° Southeast  Level FlightAware Approximate
07:10AM -13.0007 -59.2489 133° Southeast  Level FlightAware Approximate
07:11AM -13.0931 -59.1453 132° Southeast  Level FlightAware Approximate
07:12AM -13.1854 -59.0416 132° Southeast  Level FlightAware Approximate
07:13AM -13.2777 -58.9378 132° Southeast  Level FlightAware Approximate
07:14AM -13.3700 -58.8340 132° Southeast  Level FlightAware Approximate
07:15AM -13.4622 -58.7301 132° Southeast  Level FlightAware Approximate
07:16AM -13.5544 -58.6261 132° Southeast  Level FlightAware Approximate
07:17AM -13.6465 -58.5221 132° Southeast  Level FlightAware Approximate
07:18AM -13.7386 -58.4179 132° Southeast  Level FlightAware Approximate
07:19AM -13.8306 -58.3137 132° Southeast  Level FlightAware Approximate
07:20AM -13.9226 -58.2094 132° Southeast  Level FlightAware Approximate
07:21AM -14.0146 -58.1050 132° Southeast  Level FlightAware Approximate
07:22AM -14.1065 -58.0005 132° Southeast  Level FlightAware Approximate
07:23AM -14.1984 -57.8960 132° Southeast  Level FlightAware Approximate
07:24AM -14.2902 -57.7913 132° Southeast  Level FlightAware Approximate
07:25AM -14.3820 -57.6866 132° Southeast  Level FlightAware Approximate
07:26AM -14.4737 -57.5817 132° Southeast  Level FlightAware Approximate
07:27AM -14.5654 -57.4768 132° Southeast  Level FlightAware Approximate
07:28AM -14.6570 -57.3719 132° Southeast  Level FlightAware Approximate
07:29AM -14.7486 -57.2668 132° Southeast  Level FlightAware Approximate
07:30AM -14.8402 -57.1616 132° Southeast  Level FlightAware Approximate
07:31AM -14.9317 -57.0564 132° Southeast  Level FlightAware Approximate
07:32AM -15.0231 -56.9510 132° Southeast  Level FlightAware Approximate
07:33AM -15.1145 -56.8456 132° Southeast  Level FlightAware Approximate
07:34AM -15.2059 -56.7400 132° Southeast  Level FlightAware Approximate
07:35AM -15.2972 -56.6344 132° Southeast  Level FlightAware Approximate
07:36AM -15.3884 -56.5287 132° Southeast  Level FlightAware Approximate
07:37AM -15.4796 -56.4229 132° Southeast  Level FlightAware Approximate
07:38AM -15.5708 -56.3170 132° Southeast  Level FlightAware Approximate
07:39AM -15.6619 -56.2110 132° Southeast  Level FlightAware Approximate
07:40AM -15.7529 -56.1049 132° Southeast  Level FlightAware Approximate
07:41AM -15.8439 -55.9987 132° Southeast  Level FlightAware Approximate
07:42AM -15.9349 -55.8925 132° Southeast  Level FlightAware Approximate
07:43AM -16.0258 -55.7861 132° Southeast  Level FlightAware Approximate
07:44AM -16.1166 -55.6796 132° Southeast  Level FlightAware Approximate
07:45AM -16.2074 -55.5731 132° Southeast  Level FlightAware Approximate
07:46AM -16.2981 -55.4664 132° Southeast  Level FlightAware Approximate
07:47AM -16.3888 -55.3596 132° Southeast  Level FlightAware Approximate
07:48AM -16.4795 -55.2528 131° Southeast  Level FlightAware Approximate
07:49AM -16.5700 -55.1458 131° Southeast  Level FlightAware Approximate
07:50AM -16.6605 -55.0387 131° Southeast  Level FlightAware Approximate
07:51AM -16.7510 -54.9316 131° Southeast  Level FlightAware Approximate
07:52AM -16.8414 -54.8243 131° Southeast  Level FlightAware Approximate
07:53AM -16.9318 -54.7169 131° Southeast  Level FlightAware Approximate
07:54AM -17.0221 -54.6095 131° Southeast  Level FlightAware Approximate
07:55AM -17.1123 -54.5019 131° Southeast  Level FlightAware Approximate
07:56AM -17.2025 -54.3942 131° Southeast  Level FlightAware Approximate
07:57AM -17.2926 -54.2864 131° Southeast  Level FlightAware Approximate
07:58AM -17.3827 -54.1785 131° Southeast  Level FlightAware Approximate
07:59AM -17.4727 -54.0705 131° Southeast  Level FlightAware Approximate
08:00AM -17.5627 -53.9624 131° Southeast  Level FlightAware Approximate
08:01AM -17.6526 -53.8542 131° Southeast  Level FlightAware Approximate
08:02AM -17.7424 -53.7459 131° Southeast  Level FlightAware Approximate
08:03AM -17.8322 -53.6375 131° Southeast  Level FlightAware Approximate
08:04AM -17.9219 -53.5289 131° Southeast  Level FlightAware Approximate
08:05AM -18.0116 -53.4203 131° Southeast  Level FlightAware Approximate
08:06AM -18.1012 -53.3115 131° Southeast  Level FlightAware Approximate
08:07AM -18.1907 -53.2026 131° Southeast  Level FlightAware Approximate
08:08AM -18.2802 -53.0937 131° Southeast  Level FlightAware Approximate
08:09AM -18.3696 -52.9846 131° Southeast  Level FlightAware Approximate
08:10AM -18.4589 -52.8754 131° Southeast  Level FlightAware Approximate
08:11AM -18.5482 -52.7660 131° Southeast  Level FlightAware Approximate
08:12AM -18.6374 -52.6566 131° Southeast  Level FlightAware Approximate
08:13AM -18.7266 -52.5470 131° Southeast  Level FlightAware Approximate
08:14AM -18.8157 -52.4374 131° Southeast  Level FlightAware Approximate
08:15AM -18.9047 -52.3276 131° Southeast  Level FlightAware Approximate
08:16AM -18.9937 -52.2177 131° Southeast  Level FlightAware Approximate
08:17AM -19.0826 -52.1077 131° Southeast  Level FlightAware Approximate
08:18AM -19.1714 -51.9975 131° Southeast  Level FlightAware Approximate
08:19AM -19.2602 -51.8873 130° Southeast  Level FlightAware Approximate
08:20AM -19.3489 -51.7769 130° Southeast  Level FlightAware Approximate
08:21AM -19.4375 -51.6664 130° Southeast  Level FlightAware Approximate
08:22AM -19.5261 -51.5558 130° Southeast  Level FlightAware Approximate
08:23AM -19.6146 -51.4451 130° Southeast  Level FlightAware Approximate
08:24AM -19.7031 -51.3342 130° Southeast  Level FlightAware Approximate
08:25AM -19.7914 -51.2232 130° Southeast  Level FlightAware Approximate
08:26AM -19.8797 -51.1121 130° Southeast  Level FlightAware Approximate
08:27AM -19.9680 -51.0009 130° Southeast  Level FlightAware Approximate
08:28AM -20.0561 -50.8895 130° Southeast  Level FlightAware Approximate
08:29AM -20.1442 -50.7781 130° Southeast  Level FlightAware Approximate
08:30AM -20.2322 -50.6665 130° Southeast  Level FlightAware Approximate
08:31AM -20.3202 -50.5547 130° Southeast  Level FlightAware Approximate
08:32AM -20.4081 -50.4429 130° Southeast  Level FlightAware Approximate
08:33AM -20.4959 -50.3309 130° Southeast  Level FlightAware Approximate
08:34AM -20.5836 -50.2188 130° Southeast  Level FlightAware Approximate
08:35AM -20.6713 -50.1065 130° Southeast  Level FlightAware Approximate
08:36AM -20.7589 -49.9942 130° Southeast  Level FlightAware Approximate
08:37AM -20.8464 -49.8817 130° Southeast  Level FlightAware Approximate
08:38AM -20.9338 -49.7691 130° Southeast  Level FlightAware Approximate
08:39AM -21.0212 -49.6563 130° Southeast  Level FlightAware Approximate
08:40AM -21.1085 -49.5434 130° Southeast  Level FlightAware Approximate
08:41AM -21.1957 -49.4304 130° Southeast  Level FlightAware Approximate
08:42AM -21.2829 -49.3172 130° Southeast  Level FlightAware Approximate
08:43AM -21.3687 -49.2055 130° Southeast  Level FlightAware Approximate
08:44AM -21.4545 -49.0937 130° Southeast  Level FlightAware Approximate
08:45AM -21.5402 -48.9817 129° Southeast  Level FlightAware Approximate
08:46AM -21.6258 -48.8697 129° Southeast  Level FlightAware Approximate
08:47AM -21.7113 -48.7574 129° Southeast  Level FlightAware Approximate
08:48AM -21.7968 -48.6451 129° Southeast  Level FlightAware Approximate
08:49AM -21.8822 -48.5326 129° Southeast  Level FlightAware Approximate
08:50AM -21.9675 -48.4200 129° Southeast  Level FlightAware Approximate
08:51AM -22.0527 -48.3072 129° Southeast  Level FlightAware Approximate
08:52AM -22.1338 -48.1910 126° Southeast  Level FlightAware Approximate
08:53AM -22.2203 -48.0797 137° Southeast  Level FlightAware Approximate
08:54AM -22.3057 -47.9672 128° Southeast  Level FlightAware Approximate
08:55AM -22.3904 -47.8537 131° Southeast  Level FlightAware Approximate
08:56AM -22.4787 -47.7434 131° Southeast  Level FlightAware Approximate
08:57AM -22.5669 -47.6329 128° Southeast  Level FlightAware Approximate
08:58AM -22.6495 -47.5174 128° Southeast  Level FlightAware Approximate
08:59AM -22.7321 -47.4018 128° Southeast  Level FlightAware Approximate
09:00AM -22.8172 -47.2883 129° Southeast  Level FlightAware Approximate
09:01AM -22.9023 -47.1748 129° Southeast  Level FlightAware Approximate
09:02AM -22.9875 -47.0612 129° Southeast  Level FlightAware Approximate
09:03AM -23.0720 -46.9470 128° Southeast  Level FlightAware Approximate
09:04AM -23.1556 -46.8319 128° Southeast  Level FlightAware Approximate
09:05AM -23.2379 -46.7170 122° Southeast  Level FlightAware Approximate
09:06AM -23.3175 -46.5989 129° Southeast  Level FlightAware Approximate
09:07AM -23.4028 -46.4851 129° Southeast  Level FlightAware Approximate
09:08AM -23.4167 -46.4667 129° Southeast  Level FlightAware Approximate
09:09AM -23.4321 -46.4695 129° Southeast  Level Estimated
09:10AM -23.4321 -46.4695 129° Southeast  Level Estimated
09:11AM -23.4321 -46.4695 129° Southeast  Level Estimated